Time;durP1;ratioP1;P1;durP2;ratioP2;P2;SDS_P1;SDS_P2;PMS_P1;PMS_P2;Temp;Humidity;BMP_temperature;BMP_pressure;BME280_temperature;BME280_humidity;BME280_pressure;Samples;Min_cycle;Max_cycle;Signal;HPM_P1;HPM_P2
2022/06/08 00:02:19;;;;;;;7.47;1.85;;;15.80;99.90;;;;;;4965432;28;20053;-58
2022/06/08 00:04:46;;;;;;;3.03;1.50;;;15.80;99.90;;;;;;4994166;28;20058;-58
2022/06/08 00:07:12;;;;;;;5.65;1.60;;;15.70;99.90;;;;;;4965572;28;20122;-58
2022/06/08 00:09:40;;;;;;;5.25;1.48;;;15.50;99.90;;;;;;4969471;28;20105;-59
2022/06/08 00:12:07;;;;;;;6.07;2.05;;;15.40;99.90;;;;;;4961393;28;20113;-59
2022/06/08 00:14:34;;;;;;;3.92;1.50;;;15.30;99.90;;;;;;4966975;28;20502;-59
2022/06/08 00:17:01;;;;;;;5.57;1.73;;;15.30;99.90;;;;;;4968138;28;20082;-58
2022/06/08 00:19:28;;;;;;;3.38;1.38;;;15.30;99.90;;;;;;4968545;28;20088;-58
2022/06/08 00:21:55;;;;;;;3.80;1.33;;;15.30;99.90;;;;;;4967784;28;20125;-59
2022/06/08 00:24:22;;;;;;;12.95;4.35;;;15.30;99.90;;;;;;4965292;28;20047;-60
2022/06/08 00:26:49;;;;;;;4.32;1.67;;;15.30;99.90;;;;;;4967306;28;20043;-59
2022/06/08 00:29:15;;;;;;;4.13;1.50;;;15.30;99.90;;;;;;4968179;28;20117;-59
2022/06/08 00:31:42;;;;;;;3.53;1.25;;;15.30;99.90;;;;;;4967112;28;20087;-59
2022/06/08 00:34:09;;;;;;;2.25;0.85;;;15.30;99.90;;;;;;4966572;28;20043;-60
2022/06/08 00:36:36;;;;;;;1.90;0.77;;;15.30;99.90;;;;;;4966236;28;20082;-59
2022/06/08 00:39:03;;;;;;;0.93;0.85;;;15.30;99.90;;;;;;4966066;28;20085;-60
2022/06/08 00:41:53;;;;;;;5.50;1.98;;;15.30;99.90;;;;;;4965879;28;20513;-58
2022/06/08 00:44:23;;;;;;;2.35;1.25;;;15.40;99.90;;;;;;4960631;28;20129;-59
2022/06/08 00:46:50;;;;;;;3.75;0.88;;;15.30;99.90;;;;;;4967849;28;20138;-58
2022/06/08 00:49:31;;;;;;;5.88;1.95;;;15.30;99.90;;;;;;4996412;28;20114;-58
2022/06/08 00:51:58;;;;;;;5.35;2.45;;;15.30;99.90;;;;;;4964926;28;20410;-58
2022/06/08 00:54:27;;;;;;;4.80;1.48;;;15.30;99.90;;;;;;4999337;28;20082;-61
2022/06/08 00:56:58;;;;;;;2.47;1.30;;;15.30;99.90;;;;;;4966743;28;20046;-59
2022/06/08 00:59:24;;;;;;;3.47;1.42;;;15.40;99.90;;;;;;4967204;28;20117;-58
2022/06/08 01:01:51;;;;;;;3.15;1.35;;;15.40;99.90;;;;;;4968068;28;20156;-64
2022/06/08 01:04:19;;;;;;;1.77;1.10;;;15.40;99.90;;;;;;4968079;28;20379;-58
2022/06/08 01:06:51;;;;;;;13.60;2.03;;;15.40;99.90;;;;;;4968397;28;20495;-59
2022/06/08 01:09:32;;;;;;;3.33;1.52;;;15.40;99.90;;;;;;4965816;28;20211;-59
2022/06/08 01:12:00;;;;;;;5.60;1.00;;;15.40;99.90;;;;;;4967785;28;20138;-59
2022/06/08 01:14:27;;;;;;;6.47;1.15;;;15.30;99.90;;;;;;4966682;28;20107;-59
2022/06/08 01:16:58;;;;;;;3.22;1.17;;;15.40;99.90;;;;;;4966782;28;20054;-58
2022/06/08 01:19:25;;;;;;;1.58;0.80;;;15.40;99.90;;;;;;4997632;28;20073;-58
2022/06/08 01:21:57;;;;;;;6.72;1.30;;;15.40;99.90;;;;;;4968397;28;20569;-59
2022/06/08 01:24:24;;;;;;;3.08;1.25;;;15.40;99.90;;;;;;4967664;28;20129;-60
2022/06/08 01:27:03;;;;;;;3.58;0.70;;;15.30;99.90;;;;;;4968409;28;20090;-59
2022/06/08 01:29:48;;;;;;;3.90;1.10;;;15.30;99.90;;;;;;4969846;28;20078;-57
2022/06/08 01:32:33;;;;;;;3.17;0.98;;;15.30;99.90;;;;;;4968197;28;20125;-60
2022/06/08 01:35:06;;;;;;;5.53;1.40;;;15.40;99.90;;;;;;4997075;28;20055;-58
2022/06/08 01:38:04;;;;;;;3.47;1.02;;;15.30;99.90;;;;;;4967157;28;20502;-58
2022/06/08 01:40:50;;;;;;;3.60;0.88;;;15.40;99.90;;;;;;4965965;28;20086;-59
2022/06/08 01:43:38;;;;;;;4.38;1.60;;;15.40;99.90;;;;;;4967465;28;20471;-59
2022/06/08 01:46:14;;;;;;;7.15;1.60;;;15.40;99.90;;;;;;4967837;28;20053;-59
2022/06/08 01:48:56;;;;;;;6.43;2.17;;;15.40;99.90;;;;;;4963053;28;20691;-59
2022/06/08 01:51:25;;;;;;;3.35;2.00;;;15.50;99.90;;;;;;4966329;28;20089;-59
2022/06/08 01:53:53;;;;;;;3.70;1.05;;;15.50;99.90;;;;;;4998370;28;20450;-59
2022/06/08 01:56:20;;;;;;;5.70;0.90;;;15.40;99.90;;;;;;4968292;28;20133;-59
2022/06/08 01:59:01;;;;;;;2.85;1.08;;;15.40;99.90;;;;;;4970608;28;20527;-59
2022/06/08 02:01:57;;;;;;;4.80;0.98;;;15.40;99.90;;;;;;4969452;28;20182;-59
2022/06/08 02:04:33;;;;;;;2.30;0.98;;;15.40;99.90;;;;;;4955196;28;20074;-58
2022/06/08 02:06:59;;;;;;;3.97;0.90;;;15.40;99.90;;;;;;4624884;28;10000588;-59
2022/06/08 02:09:36;;;;;;;3.35;1.30;;;15.40;99.90;;;;;;4967780;28;20146;-59
2022/06/08 02:12:08;;;;;;;2.20;0.90;;;15.40;99.90;;;;;;4970952;28;20134;-59
2022/06/08 02:14:43;;;;;;;2.05;1.00;;;15.30;99.90;;;;;;4969401;28;20079;-59
2022/06/08 02:17:17;;;;;;;1.98;1.00;;;15.30;99.90;;;;;;4969376;28;20546;-58
2022/06/08 02:19:47;;;;;;;0.70;0.50;;;15.30;99.90;;;;;;4969659;28;20078;-58
2022/06/08 02:22:18;;;;;;;0.77;0.75;;;15.30;99.90;;;;;;4969663;28;20093;-59
2022/06/08 02:25:14;;;;;;;0.68;0.60;;;15.30;99.90;;;;;;4969510;28;20142;-59
2022/06/08 02:27:53;;;;;;;1.70;0.77;;;15.30;99.90;;;;;;4968101;28;20051;-58
2022/06/08 02:30:22;;;;;;;2.08;0.80;;;15.30;99.90;;;;;;5001851;28;20424;-59
2022/06/08 02:35:50;;;;;;;0.52;0.43;;;15.30;99.90;;;;;;4990028;28;20054;-59
2022/06/08 02:38:19;;;;;;;0.63;0.50;;;15.30;99.90;;;;;;4997271;28;20130;-59
2022/06/08 02:40:48;;;;;;;2.22;0.40;;;15.30;99.90;;;;;;5000692;28;20158;-59
2022/06/08 02:43:23;;;;;;;0.52;0.50;;;15.30;99.90;;;;;;4992156;28;20125;-58
2022/06/08 02:45:57;;;;;;;1.20;0.40;;;15.30;99.90;;;;;;4994209;28;20572;-59
2022/06/08 02:48:23;;;;;;;0.45;0.40;;;15.30;99.90;;;;;;4978589;28;20043;-59
2022/06/08 02:50:54;;;;;;;0.73;0.40;;;15.30;99.90;;;;;;4970579;28;20174;-59
2022/06/08 02:53:21;;;;;;;1.52;0.40;;;15.30;99.90;;;;;;4962473;28;20130;-58
2022/06/08 02:56:42;;;;;;;2.38;0.50;;;15.30;99.90;;;;;;4969996;28;20120;-58
2022/06/08 02:59:22;;;;;;;0.70;0.50;;;15.30;99.90;;;;;;4926938;29;20071;-59
2022/06/08 03:02:20;;;;;;;0.82;0.60;;;15.40;99.90;;;;;;4958391;28;20062;-59
2022/06/08 03:04:51;;;;;;;2.47;0.68;;;15.30;99.90;;;;;;4969931;28;20051;-57
2022/06/08 03:07:22;;;;;;;1.50;0.70;;;15.30;99.90;;;;;;4983831;28;20086;-58
2022/06/08 03:09:49;;;;;;;0.47;0.38;;;15.30;99.90;;;;;;5000145;28;20145;-58
2022/06/08 03:12:37;;;;;;;0.90;0.38;;;15.30;99.90;;;;;;4965235;28;20133;-59
2022/06/08 03:15:07;;;;;;;1.08;0.38;;;15.40;99.90;;;;;;4969610;28;20141;-58
2022/06/08 03:17:34;;;;;;;1.27;0.28;;;15.30;99.90;;;;;;4969777;28;20074;-63
2022/06/08 03:20:02;;;;;;;0.38;0.25;;;15.30;99.90;;;;;;4969986;28;20135;-58
2022/06/08 03:22:28;;;;;;;0.20;0.20;;;15.30;99.90;;;;;;4970127;28;20047;-58
2022/06/08 03:24:55;;;;;;;0.98;0.30;;;15.30;99.90;;;;;;4969522;28;20058;-59
2022/06/08 03:27:22;;;;;;;0.55;0.30;;;15.30;99.90;;;;;;4969598;28;20190;-59
2022/06/08 03:29:49;;;;;;;0.20;0.20;;;15.40;99.90;;;;;;4969433;28;20357;-59
2022/06/08 03:32:21;;;;;;;0.85;0.10;;;15.40;99.90;;;;;;4969529;28;20046;-58
2022/06/08 03:34:47;;;;;;;0.20;0.20;;;15.40;99.90;;;;;;4969088;28;20196;-59
2022/06/08 03:37:14;;;;;;;0.20;0.20;;;15.40;99.90;;;;;;4969011;28;20071;-59
2022/06/08 03:39:41;;;;;;;0.73;0.40;;;15.50;99.90;;;;;;4969081;28;20057;-58
2022/06/08 03:42:09;;;;;;;0.28;0.28;;;15.50;99.90;;;;;;4968582;28;20138;-59
2022/06/08 03:44:36;;;;;;;0.63;0.40;;;15.50;99.90;;;;;;5001178;28;20090;-63
2022/06/08 03:47:07;;;;;;;2.08;0.40;;;15.50;99.90;;;;;;4971364;28;20051;-58
2022/06/08 03:49:34;;;;;;;0.35;0.30;;;15.50;99.90;;;;;;4971353;28;20082;-59
2022/06/08 03:52:03;;;;;;;0.30;0.20;;;15.50;99.90;;;;;;4969902;28;20050;-61
2022/06/08 03:54:33;;;;;;;1.13;0.30;;;15.50;99.90;;;;;;4967752;28;20125;-59
2022/06/08 03:57:03;;;;;;;0.60;0.40;;;15.50;99.90;;;;;;4967969;28;20153;-60
2022/06/08 03:59:31;;;;;;;0.40;0.40;;;15.60;99.90;;;;;;4968846;28;20059;-59
2022/06/08 04:01:57;;;;;;;0.20;0.20;;;15.50;99.90;;;;;;4966767;28;20082;-59
2022/06/08 04:04:24;;;;;;;0.25;0.25;;;15.60;99.90;;;;;;4967338;28;20043;-59
2022/06/08 04:06:51;;;;;;;0.43;0.30;;;15.60;99.90;;;;;;4968201;28;20101;-60
2022/06/08 04:09:18;;;;;;;0.55;0.40;;;15.50;99.90;;;;;;4969491;28;20191;-59
2022/06/08 04:11:46;;;;;;;2.53;0.30;;;15.60;99.90;;;;;;4983809;28;20129;-60
2022/06/08 04:14:12;;;;;;;0.60;0.30;;;15.70;99.90;;;;;;4969721;28;20093;-60
2022/06/08 04:16:40;;;;;;;0.95;0.40;;;15.60;99.90;;;;;;4969255;28;20105;-59
2022/06/08 04:19:07;;;;;;;0.68;0.55;;;15.60;99.90;;;;;;4968909;28;20466;-59
2022/06/08 04:21:33;;;;;;;2.17;0.40;;;15.70;99.90;;;;;;4969456;28;20085;-59
2022/06/08 04:24:00;;;;;;;2.42;0.50;;;15.70;99.90;;;;;;4968829;28;20556;-59
2022/06/08 04:26:28;;;;;;;1.35;0.55;;;15.70;99.90;;;;;;4968329;28;20141;-59
2022/06/08 04:28:55;;;;;;;0.30;0.30;;;15.70;99.90;;;;;;4968930;28;20133;-60
2022/06/08 04:31:21;;;;;;;2.78;1.73;;;15.80;99.90;;;;;;4968582;28;20043;-58
2022/06/08 04:33:49;;;;;;;2.58;0.70;;;15.80;99.90;;;;;;4968520;28;20129;-59
2022/06/08 04:36:18;;;;;;;0.77;0.73;;;15.80;99.90;;;;;;4968019;28;20066;-59
2022/06/08 04:38:44;;;;;;;1.92;0.50;;;15.80;99.90;;;;;;4967947;28;20055;-60
2022/06/08 04:41:11;;;;;;;1.23;0.55;;;15.80;99.90;;;;;;4967494;28;20082;-59
2022/06/08 04:43:40;;;;;;;0.75;0.60;;;15.80;99.90;;;;;;4968249;28;20066;-59
2022/06/08 04:46:07;;;;;;;3.38;0.85;;;15.80;99.90;;;;;;4967459;28;20053;-59
2022/06/08 04:48:34;;;;;;;0.40;0.40;;;15.80;99.90;;;;;;4968029;28;20097;-59
2022/06/08 04:51:01;;;;;;;2.25;0.80;;;15.80;99.90;;;;;;4967464;28;20058;-57
2022/06/08 04:53:28;;;;;;;0.90;0.70;;;15.80;99.90;;;;;;4967623;28;20126;-58
2022/06/08 04:55:55;;;;;;;2.47;1.00;;;15.90;99.90;;;;;;4968251;28;20078;-59
2022/06/08 04:58:26;;;;;;;2.60;1.00;;;15.90;99.90;;;;;;4968147;28;20075;-60
2022/06/08 05:00:53;;;;;;;4.40;1.10;;;15.90;99.90;;;;;;4968584;28;20054;-58
2022/06/08 05:03:20;;;;;;;0.80;0.77;;;15.90;99.90;;;;;;4968011;28;20371;-58
2022/06/08 05:05:47;;;;;;;1.17;1.08;;;15.90;99.90;;;;;;4968240;28;20340;-59
2022/06/08 05:08:17;;;;;;;0.85;0.85;;;15.90;99.90;;;;;;4968326;28;20078;-59
2022/06/08 05:10:44;;;;;;;2.38;1.25;;;15.90;99.90;;;;;;4967983;28;20163;-58
2022/06/08 05:13:11;;;;;;;1.63;1.13;;;15.90;99.90;;;;;;4999014;28;20043;-58
2022/06/08 05:15:39;;;;;;;3.08;1.50;;;16.00;99.90;;;;;;4998116;28;20151;-58
2022/06/08 05:18:06;;;;;;;2.05;1.42;;;16.00;99.90;;;;;;4966162;28;20043;-59
2022/06/08 05:20:34;;;;;;;3.13;1.40;;;16.00;99.90;;;;;;4968122;28;20053;-59
2022/06/08 05:23:00;;;;;;;6.03;1.70;;;16.00;99.90;;;;;;4967033;28;20082;-59
2022/06/08 05:25:35;;;;;;;2.65;1.10;;;16.00;99.90;;;;;;4967833;28;20578;-59
2022/06/08 05:28:02;;;;;;;1.27;1.05;;;16.10;99.90;;;;;;4967888;28;20129;-60
2022/06/08 05:30:29;;;;;;;1.50;1.00;;;16.10;99.90;;;;;;4969769;28;20047;-60
2022/06/08 05:32:56;;;;;;;1.65;1.33;;;16.10;99.90;;;;;;4968800;28;20089;-59
2022/06/08 05:35:23;;;;;;;2.10;1.40;;;16.10;99.90;;;;;;4970066;28;20150;-57
2022/06/08 05:37:51;;;;;;;3.15;1.23;;;16.10;99.90;;;;;;4970738;28;20055;-58
2022/06/08 05:40:18;;;;;;;2.70;2.45;;;16.10;99.90;;;;;;4969533;28;20073;-59
2022/06/08 05:42:44;;;;;;;1.67;1.20;;;16.20;99.90;;;;;;4970420;28;20086;-56
2022/06/08 05:45:26;;;;;;;1.40;1.08;;;16.10;99.90;;;;;;4970650;28;20047;-57
2022/06/08 05:47:53;;;;;;;1.80;1.45;;;16.10;99.90;;;;;;4970950;28;20055;-55
2022/06/08 05:50:20;;;;;;;4.28;1.38;;;16.10;99.90;;;;;;4966780;28;20070;-56
2022/06/08 05:52:47;;;;;;;3.05;1.42;;;16.10;99.90;;;;;;4969680;28;20104;-55
2022/06/08 05:55:15;;;;;;;1.65;0.95;;;16.10;99.90;;;;;;4970821;28;20134;-53
2022/06/08 05:57:41;;;;;;;2.65;1.00;;;16.10;99.90;;;;;;4971177;28;20137;-57
2022/06/08 06:00:13;;;;;;;1.92;1.20;;;16.10;99.90;;;;;;4970967;28;20072;-60
2022/06/08 06:02:40;;;;;;;2.30;1.58;;;16.00;99.90;;;;;;4970893;28;20525;-58
2022/06/08 06:05:07;;;;;;;3.42;1.50;;;16.00;99.90;;;;;;4986220;28;20133;-59
2022/06/08 06:07:34;;;;;;;4.47;1.17;;;16.00;99.90;;;;;;4973135;28;20047;-64
2022/06/08 06:10:03;;;;;;;1.60;1.33;;;16.10;99.90;;;;;;4970595;28;20077;-56
2022/06/08 06:12:30;;;;;;;3.28;1.63;;;16.10;99.90;;;;;;4971618;28;20101;-59
2022/06/08 06:15:04;;;;;;;;;;;16.20;99.90;;;;;;4971396;28;20506;-58
2022/06/08 06:17:30;;;;;;;3.55;1.40;;;16.20;99.90;;;;;;4971583;28;19930;-56
2022/06/08 06:19:57;;;;;;;2.42;1.70;;;16.30;99.90;;;;;;4971702;28;20043;-59
2022/06/08 06:22:25;;;;;;;3.63;1.60;;;16.30;99.90;;;;;;4971146;28;20054;-57
2022/06/08 06:24:52;;;;;;;3.90;1.55;;;16.30;99.90;;;;;;4971508;28;20117;-57
2022/06/08 06:27:21;;;;;;;1.95;0.93;;;16.40;99.90;;;;;;4970078;28;20152;-58
2022/06/08 06:29:48;;;;;;;2.65;1.63;;;16.40;99.90;;;;;;4968900;28;20049;-58
2022/06/08 06:32:26;;;;;;;1.45;0.90;;;16.40;99.90;;;;;;4969945;28;20051;-57
2022/06/08 06:34:54;;;;;;;2.00;1.30;;;16.50;99.90;;;;;;4964706;28;20298;-55
2022/06/08 06:37:21;;;;;;;2.83;0.95;;;16.40;99.90;;;;;;4965451;28;20676;-55
2022/06/08 06:39:48;;;;;;;3.28;1.17;;;16.50;99.90;;;;;;4965870;28;20089;-58
2022/06/08 06:42:16;;;;;;;3.53;0.90;;;16.50;99.90;;;;;;4966352;28;20078;-58
2022/06/08 06:44:43;;;;;;;1.40;1.00;;;16.50;99.90;;;;;;4965923;28;20059;-56
2022/06/08 06:47:10;;;;;;;3.63;1.80;;;16.60;99.90;;;;;;4967477;28;20058;-56
2022/06/08 06:49:37;;;;;;;3.15;1.30;;;16.70;99.90;;;;;;4967665;28;20051;-59
2022/06/08 06:52:04;;;;;;;3.00;1.10;;;16.70;99.90;;;;;;4991169;28;20078;-57
2022/06/08 06:54:31;;;;;;;5.72;1.60;;;16.70;99.90;;;;;;4966123;28;20126;-56
2022/06/08 06:56:58;;;;;;;2.00;0.90;;;16.80;99.90;;;;;;4967262;28;20078;-57
2022/06/08 06:59:25;;;;;;;5.97;1.48;;;16.80;99.90;;;;;;4980688;28;20070;-55
2022/06/08 07:01:52;;;;;;;3.67;0.93;;;16.80;99.90;;;;;;4623928;28;9999997;-55
2022/06/08 07:04:19;;;;;;;2.47;1.17;;;16.90;99.90;;;;;;4967410;28;20057;-56
2022/06/08 07:06:46;;;;;;;3.88;1.45;;;16.90;99.90;;;;;;4966392;28;20078;-56
2022/06/08 07:09:12;;;;;;;7.90;1.42;;;16.90;99.90;;;;;;4968938;28;20043;-56
2022/06/08 07:11:42;;;;;;;5.47;1.20;;;16.90;99.90;;;;;;4969608;28;20141;-57
2022/06/08 07:14:12;;;;;;;7.70;1.45;;;17.00;99.90;;;;;;4969825;28;20114;-57
2022/06/08 07:16:39;;;;;;;4.30;1.00;;;17.00;99.90;;;;;;4968484;28;20085;-61
2022/06/08 07:19:08;;;;;;;2.83;1.17;;;17.00;99.90;;;;;;4969991;28;20130;-55
2022/06/08 07:21:35;;;;;;;5.00;1.05;;;17.00;99.90;;;;;;4968046;28;20569;-57
2022/06/08 07:24:02;;;;;;;5.07;1.20;;;17.00;99.90;;;;;;4970138;28;20465;-56
2022/06/08 07:26:29;;;;;;;7.88;1.75;;;16.90;99.90;;;;;;4968881;28;20130;-57
2022/06/08 07:28:56;;;;;;;5.32;1.35;;;16.90;99.90;;;;;;4969862;28;20055;-57
2022/06/08 07:31:24;;;;;;;10.07;1.38;;;16.90;99.90;;;;;;4969494;28;20077;-56
2022/06/08 07:33:51;;;;;;;3.80;1.23;;;17.10;99.90;;;;;;4968467;28;20469;-55
2022/06/08 07:36:17;;;;;;;6.25;1.38;;;17.00;99.90;;;;;;4969709;28;20138;-55
2022/06/08 07:38:45;;;;;;;6.97;1.38;;;17.00;99.90;;;;;;4963068;28;20484;-56
2022/06/08 07:41:12;;;;;;;5.60;1.70;;;17.00;99.90;;;;;;4967875;28;20046;-58
2022/06/08 07:43:39;;;;;;;9.77;1.58;;;17.00;99.90;;;;;;4967385;28;20141;-57
2022/06/08 07:46:06;;;;;;;11.18;1.52;;;17.10;99.90;;;;;;4966358;28;20046;-57
2022/06/08 07:51:19;;;;;;;6.35;1.98;;;17.20;99.90;;;;;;4966097;28;20129;-56
2022/06/08 07:53:46;;;;;;;4.38;1.05;;;17.30;99.90;;;;;;4966929;28;20078;-57
2022/06/08 07:56:13;;;;;;;5.97;1.55;;;17.30;99.90;;;;;;4968536;28;20066;-57
2022/06/08 07:58:39;;;;;;;3.08;1.10;;;17.30;99.90;;;;;;4969456;28;20093;-58
2022/06/08 08:01:07;;;;;;;3.78;1.20;;;17.50;99.90;;;;;;4968841;28;20735;-57
2022/06/08 08:03:34;;;;;;;6.95;1.60;;;17.60;99.90;;;;;;4967995;28;20494;-58
2022/06/08 08:06:00;;;;;;;8.07;1.30;;;17.60;99.90;;;;;;4969571;28;20130;-58
2022/06/08 08:08:27;;;;;;;7.82;1.75;;;17.60;99.90;;;;;;4969180;28;20058;-57
2022/06/08 08:10:54;;;;;;;7.93;1.80;;;17.70;99.90;;;;;;4969003;28;20043;-57
2022/06/08 08:13:21;;;;;;;4.57;1.27;;;17.70;99.90;;;;;;4968886;28;20047;-56
2022/06/08 08:15:50;;;;;;;6.45;1.35;;;17.80;99.90;;;;;;4969088;28;20086;-53
2022/06/08 08:18:17;;;;;;;8.40;1.70;;;17.80;99.90;;;;;;4967716;28;20134;-57
2022/06/08 08:20:43;;;;;;;6.35;1.42;;;17.80;99.90;;;;;;4969520;28;20069;-57
2022/06/08 08:23:10;;;;;;;5.82;1.25;;;17.90;99.90;;;;;;4968511;28;20143;-56
2022/06/08 08:25:37;;;;;;;4.95;1.33;;;17.80;99.90;;;;;;4968815;28;20061;-57
2022/06/08 08:28:04;;;;;;;8.68;1.92;;;17.70;99.90;;;;;;4968562;28;20082;-55
2022/06/08 08:30:31;;;;;;;4.68;1.05;;;17.80;99.90;;;;;;4969127;28;20074;-55
2022/06/08 08:32:58;;;;;;;4.55;1.08;;;17.80;99.90;;;;;;4968894;28;20142;-56
2022/06/08 08:35:25;;;;;;;4.80;1.00;;;17.90;99.90;;;;;;4968496;28;20090;-60
2022/06/08 08:37:53;;;;;;;5.20;1.38;;;18.10;99.90;;;;;;4963041;28;20141;-59
2022/06/08 08:40:34;;;;;;;8.25;1.70;;;18.10;99.90;;;;;;4968541;28;20047;-57
2022/06/08 08:43:01;;;;;;;8.05;1.35;;;18.10;99.90;;;;;;4999854;28;20094;-57
2022/06/08 08:45:29;;;;;;;7.25;0.98;;;18.10;99.90;;;;;;4968434;28;20434;-57
2022/06/08 08:48:03;;;;;;;6.93;1.42;;;18.10;99.90;;;;;;4986591;28;20056;-56
2022/06/08 08:50:40;;;;;;;10.80;1.60;;;18.10;99.90;;;;;;4968738;28;20078;-57
2022/06/08 08:53:36;;;;;;;6.25;1.40;;;18.20;99.90;;;;;;4982124;28;20450;-57
2022/06/08 08:56:24;;;;;;;4.90;1.33;;;18.30;99.90;;;;;;4958356;28;20501;-56
2022/06/08 08:58:52;;;;;;;4.68;0.90;;;18.40;99.90;;;;;;4998438;28;20047;-55
2022/06/08 09:01:30;;;;;;;2.60;1.02;;;18.40;99.90;;;;;;4621639;28;10000082;-56
2022/06/08 09:04:03;;;;;;;7.03;1.60;;;18.40;99.90;;;;;;4967162;28;20086;-62
2022/06/08 09:06:31;;;;;;;11.73;1.40;;;18.40;99.90;;;;;;4972892;28;20113;-58
2022/06/08 09:09:02;;;;;;;4.38;1.30;;;18.50;99.90;;;;;;4972815;28;20051;-57
2022/06/08 09:11:37;;;;;;;6.18;1.05;;;18.60;99.90;;;;;;4971756;28;20058;-57
2022/06/08 09:14:13;;;;;;;2.83;0.70;;;18.70;99.90;;;;;;4972494;28;20130;-56
2022/06/08 09:16:45;;;;;;;11.25;1.30;;;18.50;99.90;;;;;;4968841;28;20079;-58
2022/06/08 09:19:22;;;;;;;5.00;1.48;;;18.60;99.90;;;;;;5000765;28;20494;-57
2022/06/08 09:21:50;;;;;;;4.05;0.80;;;18.60;99.90;;;;;;4968912;28;20363;-57
2022/06/08 09:24:23;;;;;;;3.17;1.10;;;18.60;99.90;;;;;;5003281;28;20047;-54
2022/06/08 09:26:50;;;;;;;6.47;1.20;;;18.70;99.90;;;;;;4966087;28;20122;-56
2022/06/08 09:29:22;;;;;;;7.38;1.15;;;18.80;99.90;;;;;;4997550;28;20078;-53
2022/06/08 09:31:50;;;;;;;5.40;1.55;;;18.90;99.90;;;;;;4964264;28;20560;-57
2022/06/08 09:34:17;;;;;;;7.93;1.45;;;19.20;99.90;;;;;;4972276;28;20487;-58
2022/06/08 09:36:44;;;;;;;6.78;1.05;;;19.30;99.90;;;;;;4971799;28;20138;-59
2022/06/08 09:39:13;;;;;;;12.07;1.30;;;19.30;99.90;;;;;;4972274;28;20085;-57
2022/06/08 09:41:48;;;;;;;7.25;1.05;;;19.30;99.90;;;;;;4970483;28;20074;-58
2022/06/08 09:44:26;;;;;;;1.88;0.77;;;19.30;99.90;;;;;;4964083;28;20553;-58
2022/06/08 09:53:11;;;;;;;6.25;1.15;;;18.80;99.90;;;;;;4971559;28;20097;-55
2022/06/08 09:56:13;;;;;;;1.38;0.57;;;18.80;99.90;;;;;;4971462;28;20085;-56
2022/06/08 09:58:49;;;;;;;4.18;0.95;;;18.80;99.90;;;;;;4971797;28;20086;-64
2022/06/08 10:01:21;;;;;;;4.32;1.35;;;19.00;99.90;;;;;;4990089;28;20105;-58
2022/06/08 10:03:48;;;;;;;3.80;1.40;;;19.00;99.90;;;;;;4970972;28;20059;-60
2022/06/08 10:06:26;;;;;;;2.25;0.70;;;19.20;99.90;;;;;;4971548;28;20058;-58
2022/06/08 10:08:53;;;;;;;2.40;0.80;;;19.20;99.90;;;;;;4993799;28;20445;-57
2022/06/08 10:11:34;;;;;;;5.68;2.20;;;19.20;99.90;;;;;;4971241;28;20082;-59
2022/06/08 10:14:23;;;;;;;5.43;0.85;;;19.30;99.90;;;;;;4970484;28;20086;-57
2022/06/08 10:16:57;;;;;;;2.78;1.50;;;19.60;99.90;;;;;;4984687;28;20089;-60
2022/06/08 10:19:29;;;;;;;6.10;1.40;;;19.40;99.90;;;;;;4970689;28;20138;-58
2022/06/08 10:21:56;;;;;;;4.68;0.75;;;19.30;99.90;;;;;;4989417;28;20094;-55
2022/06/08 10:24:28;;;;;;;5.35;0.85;;;19.30;99.90;;;;;;4985197;28;20044;-58
2022/06/08 10:27:18;;;;;;;32.30;3.42;;;19.50;99.90;;;;;;4969706;28;20057;-52
2022/06/08 10:30:00;;;;;;;3.88;0.75;;;19.90;99.90;;;;;;4970182;28;20759;-57
2022/06/08 10:32:30;;;;;;;6.22;1.20;;;20.20;99.90;;;;;;4970929;28;20133;-61
2022/06/08 10:34:57;;;;;;;3.10;0.70;;;20.00;99.90;;;;;;4969972;28;20081;-56
2022/06/08 10:37:30;;;;;;;6.25;1.38;;;19.80;99.90;;;;;;4971252;28;20085;-58
2022/06/08 10:39:57;;;;;;;9.00;1.00;;;19.60;99.90;;;;;;5001127;28;20113;-57
2022/06/08 10:42:39;;;;;;;5.55;1.20;;;19.40;99.90;;;;;;4969392;28;20565;-57
2022/06/08 10:45:26;;;;;;;4.78;0.95;;;19.20;99.90;;;;;;4969889;28;20113;-57
2022/06/08 10:47:54;;;;;;;5.55;0.80;;;19.20;99.90;;;;;;4969790;28;20102;-56
2022/06/08 10:50:48;;;;;;;5.05;1.05;;;19.20;99.90;;;;;;4970110;28;20059;-56
2022/06/08 10:56:27;;;;;;;3.40;0.80;;;19.20;99.90;;;;;;4963587;28;20495;-57
2022/06/08 10:59:10;;;;;;;6.68;1.23;;;19.20;99.90;;;;;;4970699;28;20078;-58
2022/06/08 11:02:01;;;;;;;5.78;0.95;;;19.20;99.90;;;;;;4994071;28;20069;-58
2022/06/08 11:04:35;;;;;;;3.75;0.70;;;19.30;99.90;;;;;;4970790;28;20051;-59
2022/06/08 11:07:07;;;;;;;4.97;1.20;;;19.50;99.90;;;;;;4970628;28;20070;-57
2022/06/08 11:09:33;;;;;;;3.90;1.20;;;19.60;99.90;;;;;;5001321;28;20121;-55
2022/06/08 11:12:11;;;;;;;8.30;2.20;;;19.80;99.90;;;;;;4625249;28;10001249;-56
2022/06/08 11:14:43;;;;;;;1.75;1.05;;;19.90;99.90;;;;;;4964748;28;20555;-57
2022/06/08 11:17:19;;;;;;;4.45;1.10;;;19.90;99.90;;;;;;4966122;28;20058;-58
2022/06/08 11:19:46;;;;;;;6.70;1.20;;;20.20;99.90;;;;;;4964637;28;20055;-60
2022/06/08 11:22:23;;;;;;;5.95;0.80;;;20.20;99.90;;;;;;4964599;28;20093;-56
2022/06/08 11:24:52;;;;;;;3.45;0.90;;;20.10;99.90;;;;;;4994158;28;20090;-57
2022/06/08 11:27:30;;;;;;;7.63;0.98;;;20.20;99.90;;;;;;4964204;28;20116;-57
2022/06/08 11:29:57;;;;;;;2.30;0.60;;;19.90;99.90;;;;;;4966783;28;20078;-59
2022/06/08 11:32:27;;;;;;;6.55;0.75;;;19.90;99.90;;;;;;4965737;28;20046;-57
2022/06/08 11:34:58;;;;;;;3.06;1.02;;;19.90;99.90;;;;;;4623727;28;10000819;-57
2022/06/08 11:37:38;;;;;;;5.72;0.95;;;20.00;99.90;;;;;;4983070;28;20521;-58
2022/06/08 11:40:27;;;;;;;4.75;0.88;;;20.20;99.90;;;;;;4966325;28;20113;-58
2022/06/08 11:43:16;;;;;;;4.07;1.45;;;20.40;99.90;;;;;;4966272;28;20069;-57
2022/06/08 11:45:50;;;;;;;1.38;0.60;;;20.50;99.90;;;;;;4956422;28;20121;-56
2022/06/08 11:48:20;;;;;;;2.47;0.60;;;20.50;99.30;;;;;;4966434;28;20078;-59
2022/06/08 11:51:07;;;;;;;3.03;1.00;;;20.30;98.40;;;;;;4966581;28;20150;-58
2022/06/08 11:53:39;;;;;;;1.35;0.52;;;20.20;98.90;;;;;;4963741;28;20486;-58
2022/06/08 11:56:24;;;;;;;2.15;0.80;;;20.10;99.90;;;;;;4966248;28;20078;-55
2022/06/08 11:58:52;;;;;;;6.05;0.82;;;20.20;98.50;;;;;;4996592;28;20078;-57
2022/06/08 12:01:28;;;;;;;2.63;0.43;;;20.20;99.60;;;;;;4957186;28;20502;-57
2022/06/08 12:04:03;;;;;;;2.70;0.63;;;20.30;98.30;;;;;;4966883;28;20086;-56
2022/06/08 12:06:38;;;;;;;2.47;0.80;;;20.50;96.00;;;;;;4966024;28;20050;-57
2022/06/08 12:09:18;;;;;;;1.13;0.30;;;20.40;95.60;;;;;;4964685;28;20476;-56
2022/06/08 12:11:48;;;;;;;3.92;0.73;;;20.50;94.30;;;;;;4989517;28;20178;-59
2022/06/08 12:14:23;;;;;;;2.90;0.52;;;20.60;95.20;;;;;;4964776;28;20146;-57
2022/06/08 12:17:00;;;;;;;3.45;0.90;;;20.50;95.00;;;;;;4959275;28;20051;-57
2022/06/08 12:19:30;;;;;;;6.65;0.88;;;20.60;96.60;;;;;;4964176;28;20055;-59
2022/06/08 12:22:17;;;;;;;5.45;1.42;;;20.70;96.70;;;;;;4965981;28;20072;-54
2022/06/08 12:25:03;;;;;;;5.03;0.93;;;20.40;94.30;;;;;;4959748;28;20051;-55
2022/06/08 12:27:33;;;;;;;3.80;0.70;;;20.30;95.90;;;;;;4963988;28;20047;-55
2022/06/08 12:30:00;;;;;;;4.22;1.20;;;20.30;96.90;;;;;;4996331;28;20470;-52
2022/06/08 12:32:34;;;;;;;3.95;1.10;;;20.50;96.00;;;;;;4959199;28;20050;-55
2022/06/08 12:35:06;;;;;;;5.05;1.23;;;20.30;95.20;;;;;;4965080;28;20074;-56
2022/06/08 12:37:35;;;;;;;3.00;0.80;;;20.50;95.50;;;;;;4962800;28;20043;-56
2022/06/08 12:40:17;;;;;;;2.75;1.23;;;20.80;96.60;;;;;;4965327;28;20134;-58
2022/06/08 12:43:00;;;;;;;9.38;1.02;;;21.00;93.60;;;;;;4963345;28;20573;-57
2022/06/08 12:45:35;;;;;;;3.78;0.82;;;21.00;94.40;;;;;;4996168;28;20058;-58
2022/06/08 12:48:21;;;;;;;6.90;1.00;;;20.80;93.80;;;;;;4964522;28;20065;-55
2022/06/08 12:50:48;;;;;;;1.98;0.65;;;20.80;93.60;;;;;;4962841;28;20086;-57
2022/06/08 12:53:16;;;;;;;4.15;0.98;;;20.80;95.70;;;;;;4995692;28;20043;-57
2022/06/08 12:55:43;;;;;;;3.08;0.95;;;21.00;94.90;;;;;;4965194;28;20051;-56
2022/06/08 12:58:10;;;;;;;6.07;0.88;;;21.20;93.80;;;;;;4964866;28;20058;-56
2022/06/08 13:00:37;;;;;;;5.32;0.90;;;21.30;93.50;;;;;;4964718;28;20046;-56
2022/06/08 13:03:14;;;;;;;5.78;1.17;;;21.50;94.30;;;;;;4964336;28;20074;-58
2022/06/08 13:05:41;;;;;;;5.57;0.82;;;21.60;92.70;;;;;;4965033;28;20080;-57
2022/06/08 13:08:15;;;;;;;5.15;0.60;;;21.50;94.40;;;;;;4963338;28;20047;-57
2022/06/08 13:10:42;;;;;;;6.35;1.02;;;21.50;92.80;;;;;;4987075;28;20133;-56
2022/06/08 13:13:15;;;;;;;2.70;0.88;;;21.60;94.10;;;;;;4962168;28;20488;-57
2022/06/08 13:15:44;;;;;;;4.47;1.00;;;21.80;91.40;;;;;;4962749;28;20051;-57
2022/06/08 13:18:16;;;;;;;3.78;1.00;;;22.00;92.40;;;;;;4964263;28;20046;-58
2022/06/08 13:20:43;;;;;;;6.45;1.13;;;22.30;91.50;;;;;;4990513;28;20079;-54
2022/06/08 13:23:10;;;;;;;10.98;1.27;;;22.10;90.60;;;;;;4964686;28;20086;-56